Last Chance, Iowa
Current Conditions -  °F | °C
As of 11:15 AM on Sunday 21 Dec 2014 (Local Time) from KCNC Reporting Station
Haze Haze  
Wind Chill: -1°   Ceiling: 1000
Heat Index:   Visibility: 5mi
Dew Point:   Wind: 17mph
Humidity: 93%   Direction: 200°SSW
Pressure: 29.95"   Gusts: 31mph
Location:  40.9417°N, 93.4995°W
Report Text: KCNC 211715Z AUTO 20015G27KT 5SM BR BKN010 OVC013 04/03 A2995 RMK AO2
Loading
Personal Weather Stations






























Interactive Weather Map New forecast layout! Learn more

10-Day Weather Forecast

Advertisements
Track Severe Weather on mobile